Terminal Aerodrome Forecast
Issued by NWS

Home | Current Version | Previous Version | Graphics & Text | Print | Product List | Glossary On
Versions: 1 2 3 4 5 6 7 8 9 10 11 12 13 14 15 16 17 18
000
FTUS43 KLSX 071100
TAFSUS
TAF
KSUS 071139Z 0712/0812 25012KT P6SM SCT050 SCT100
     FM072000 25008KT P6SM VCTS SCT050CB SCT100
     FM080000 24005KT P6SM SCT080
     FM080700 25009KT P6SM VCTS BKN050CB
      TEMPO 0807/0809 VRB20G40KT 1SM +TSRA OVC015CB
     FM080900 VRB04KT 5SM -TSRA OVC060CB
     FM081100 26004KT P6SM -SHRA SCT030 OVC050=

USA.gov is the U.S. government's official web portal to all federal, state and local government web resources and services.